createdAt,value
2018-10-19T00:00:36.274Z,30.77
2018-10-19T00:03:40.503Z,28.67
2018-10-19T00:06:44.714Z,30.47
2018-10-19T00:09:49.418Z,28.07
2018-10-19T00:12:53.634Z,29.33
2018-10-19T00:15:57.995Z,27.87
2018-10-19T00:19:02.225Z,30.20
2018-10-19T00:22:06.923Z,28.70
2018-10-19T00:25:11.149Z,30.53
2018-10-19T00:28:15.437Z,26.90
2018-10-19T00:31:19.658Z,26.77
2018-10-19T00:34:23.897Z,28.40
2018-10-19T00:37:28.174Z,31.27
2018-10-19T00:40:32.602Z,31.07
2018-10-19T00:43:36.798Z,27.93
2018-10-19T00:46:41.066Z,30.10
2018-10-19T00:49:45.282Z,30.83
2018-10-19T00:52:49.505Z,29.90
2018-10-19T00:55:53.739Z,29.47
2018-10-19T00:58:57.993Z,33.50
2018-10-19T01:02:02.270Z,30.87
2018-10-19T01:05:07.069Z,31.57
2018-10-19T01:08:11.411Z,31.07
2018-10-19T01:11:16.050Z,32.00
2018-10-19T01:14:20.206Z,31.93
2018-10-19T01:17:24.680Z,33.60
2018-10-19T01:20:28.976Z,32.43
2018-10-19T01:23:33.581Z,32.57
2018-10-19T01:26:37.894Z,33.50
2018-10-19T01:29:42.116Z,32.33
2018-10-19T01:32:46.762Z,32.30
2018-10-19T01:35:51.016Z,30.93
2018-10-19T01:38:55.267Z,34.00
2018-10-19T01:41:59.381Z,34.73
2018-10-19T01:45:03.600Z,34.97
2018-10-19T01:48:07.733Z,32.47
2018-10-19T01:51:12.007Z,31.90
2018-10-19T01:54:16.129Z,35.60
2018-10-19T01:57:23.583Z,35.77
2018-10-19T02:00:27.805Z,35.30
2018-10-19T02:03:32.050Z,34.57
2018-10-19T02:06:36.334Z,35.83
2018-10-19T02:09:40.691Z,33.33
2018-10-19T02:12:44.878Z,33.70
2018-10-19T02:15:49.156Z,35.00
2018-10-19T02:18:53.631Z,35.80
2018-10-19T02:21:57.850Z,34.73
2018-10-19T02:25:02.076Z,36.17
2018-10-19T02:28:06.360Z,36.97
2018-10-19T02:31:10.851Z,36.97
2018-10-19T02:34:15.102Z,37.77
2018-10-19T02:37:19.301Z,39.00
2018-10-19T02:40:23.946Z,37.17
2018-10-19T02:43:28.630Z,38.83
2018-10-19T02:46:32.826Z,37.00
2018-10-19T02:49:37.047Z,35.37
2018-10-19T02:52:41.233Z,36.80
2018-10-19T02:55:45.470Z,40.57
2018-10-19T02:58:49.639Z,39.70
2018-10-19T03:01:53.838Z,36.17
2018-10-19T03:04:58.182Z,38.33
2018-10-19T03:08:02.683Z,37.20
2018-10-19T03:11:07.300Z,37.53
2018-10-19T03:14:11.455Z,38.17
2018-10-19T03:17:15.817Z,39.30
2018-10-19T03:20:20.239Z,35.40
2018-10-19T03:23:24.597Z,35.23
2018-10-19T03:26:28.977Z,40.50
2018-10-19T03:29:33.152Z,39.53
2018-10-19T03:32:37.326Z,37.33
2018-10-19T03:35:41.553Z,40.17
2018-10-19T03:38:45.739Z,39.47
2018-10-19T03:41:49.931Z,38.73
2018-10-19T03:44:54.183Z,39.53
2018-10-19T03:47:59.054Z,38.73
2018-10-19T03:51:03.288Z,36.67
2018-10-19T03:54:07.540Z,36.93
2018-10-19T03:57:11.789Z,39.27
2018-10-19T04:00:15.941Z,39.77
2018-10-19T04:03:20.155Z,39.77
2018-10-19T04:06:24.357Z,42.10
2018-10-19T04:09:28.795Z,41.97
2018-10-19T04:12:32.979Z,39.13
2018-10-19T04:15:37.184Z,42.27
2018-10-19T04:18:41.340Z,45.00
2018-10-19T04:21:45.519Z,44.50
2018-10-19T04:24:49.707Z,43.07
2018-10-19T04:27:53.958Z,43.27
2018-10-19T04:30:58.425Z,41.93
2018-10-19T04:34:02.978Z,41.83
2018-10-19T04:37:07.652Z,39.43
2018-10-19T04:40:18.503Z,41.30
2018-10-19T04:43:23.016Z,38.73
2018-10-19T04:46:27.589Z,43.00
2018-10-19T04:49:32.121Z,44.30
2018-10-19T04:52:36.427Z,43.07
2018-10-19T04:55:40.597Z,42.17
2018-10-19T04:58:44.789Z,43.47
2018-10-19T05:01:48.998Z,39.97
2018-10-19T05:04:53.402Z,40.97
2018-10-19T05:07:57.609Z,43.27
2018-10-19T05:11:01.749Z,43.07
2018-10-19T05:14:06.405Z,45.70
2018-10-19T05:17:12.371Z,43.53
2018-10-19T05:20:18.173Z,47.03
2018-10-19T05:23:22.259Z,42.97
2018-10-19T05:26:26.749Z,46.87
2018-10-19T05:29:30.901Z,46.17
2018-10-19T05:32:35.111Z,47.67
2018-10-19T05:35:39.295Z,51.63
2018-10-19T05:38:43.451Z,44.97
2018-10-19T05:41:47.586Z,52.43
2018-10-19T05:44:51.728Z,53.43
2018-10-19T05:47:55.908Z,51.70
2018-10-19T05:51:00.075Z,52.20
2018-10-19T05:54:04.538Z,54.53
2018-10-19T05:57:08.710Z,47.97
2018-10-19T06:00:13.597Z,46.80
2018-10-19T06:03:17.859Z,50.53
2018-10-19T06:06:22.032Z,45.00
2018-10-19T06:09:26.255Z,51.17
2018-10-19T06:12:30.608Z,55.77
2018-10-19T06:15:34.762Z,43.13
2018-10-19T06:18:38.906Z,40.90
2018-10-19T06:21:43.334Z,40.93
2018-10-19T06:24:47.519Z,35.80
2018-10-19T06:27:51.677Z,37.73
2018-10-19T06:30:55.857Z,35.77
2018-10-19T06:34:00.256Z,36.47
2018-10-19T06:37:04.518Z,38.53
2018-10-19T06:40:08.678Z,40.77
2018-10-19T06:43:13.668Z,42.83
2018-10-19T06:46:17.817Z,44.33
2018-10-19T06:49:22.018Z,44.90
2018-10-19T06:52:26.155Z,41.77
2018-10-19T06:55:30.304Z,42.10
2018-10-19T06:58:34.443Z,42.30
2018-10-19T07:01:38.641Z,44.20
2018-10-19T07:04:42.844Z,43.47
2018-10-19T07:07:47.017Z,42.67
2018-10-19T07:10:51.117Z,43.37
2018-10-19T07:13:55.272Z,42.03
2018-10-19T07:16:59.444Z,44.00
2018-10-19T07:20:03.703Z,43.97
2018-10-19T07:23:07.841Z,46.60
2018-10-19T07:26:12.011Z,48.00
2018-10-19T07:29:16.220Z,50.03
2018-10-19T07:32:20.290Z,49.90
2018-10-19T07:35:24.462Z,48.93
2018-10-19T07:38:28.624Z,49.03
2018-10-19T07:41:32.772Z,49.43
2018-10-19T07:44:36.906Z,45.80
2018-10-19T07:47:41.135Z,49.17
2018-10-19T07:50:45.243Z,48.87
2018-10-19T07:53:49.414Z,48.07
2018-10-19T07:56:53.578Z,45.13
2018-10-19T07:59:57.732Z,50.80
2018-10-19T08:03:01.887Z,48.63
2018-10-19T08:06:06.018Z,48.57
2018-10-19T08:09:11.254Z,47.50
2018-10-19T08:12:15.459Z,48.30
2018-10-19T08:15:19.595Z,50.70
2018-10-19T08:18:23.884Z,46.00
2018-10-19T08:21:28.367Z,48.90
2018-10-19T08:24:36.021Z,48.93
2018-10-19T08:27:41.589Z,52.17
2018-10-19T08:30:45.738Z,48.47
2018-10-19T08:33:49.886Z,51.53
2018-10-19T08:36:54.072Z,51.67
2018-10-19T08:39:58.215Z,54.43
2018-10-19T08:43:02.470Z,53.23
2018-10-19T08:46:12.054Z,54.00
2018-10-19T08:49:16.208Z,48.53
2018-10-19T08:52:20.336Z,52.40
2018-10-19T08:55:24.619Z,55.17
2018-10-19T08:58:28.767Z,53.83
2018-10-19T09:01:32.931Z,53.97
2018-10-19T09:04:37.163Z,57.17
2018-10-19T09:07:41.314Z,57.23
2018-10-19T09:10:45.508Z,55.73
2018-10-19T09:13:49.593Z,54.37
2018-10-19T09:16:53.855Z,54.13
2018-10-19T09:19:57.963Z,56.23
2018-10-19T09:23:02.182Z,55.23
2018-10-19T09:26:06.299Z,52.93
2018-10-19T09:29:10.481Z,55.27
2018-10-19T09:32:14.649Z,53.37
2018-10-19T09:35:18.944Z,54.50
2018-10-19T09:38:22.932Z,56.30
2018-10-19T09:41:27.246Z,54.27
2018-10-19T09:44:31.328Z,54.27
2018-10-19T09:47:35.517Z,54.67
2018-10-19T09:50:39.622Z,55.03
2018-10-19T09:53:43.761Z,57.33
2018-10-19T09:56:47.901Z,55.87
2018-10-19T09:59:52.074Z,57.17
2018-10-19T10:02:56.227Z,52.83
2018-10-19T10:06:00.363Z,49.25
2018-10-19T10:09:07.727Z,54.17
2018-10-19T10:12:11.895Z,51.10
2018-10-19T10:15:16.182Z,52.88
2018-10-19T10:18:20.187Z,51.15
2018-10-19T10:21:24.327Z,52.25
2018-10-19T10:24:28.479Z,53.80
2018-10-19T10:27:32.709Z,55.52
2018-10-19T10:30:36.847Z,52.08
2018-10-19T10:33:41.103Z,52.38
2018-10-19T10:36:45.234Z,55.70
2018-10-19T10:39:49.399Z,53.30
2018-10-19T10:42:53.599Z,54.75
2018-10-19T10:45:57.761Z,52.23
2018-10-19T10:49:01.948Z,54.48
2018-10-19T10:52:06.721Z,54.38
2018-10-19T10:55:10.929Z,51.90
2018-10-19T10:58:15.088Z,50.88
2018-10-19T11:01:19.215Z,54.80
2018-10-19T11:04:23.344Z,56.10
2018-10-19T11:07:27.677Z,53.60
2018-10-19T11:10:31.663Z,55.45
2018-10-19T11:13:35.820Z,51.90
2018-10-19T11:16:39.956Z,52.75
2018-10-19T11:19:44.100Z,55.92
2018-10-19T11:22:48.255Z,54.38
2018-10-19T11:25:52.407Z,54.50
2018-10-19T11:28:56.554Z,51.98
2018-10-19T11:32:00.703Z,53.95
2018-10-19T11:35:05.177Z,52.20
2018-10-19T11:38:09.360Z,51.35
2018-10-19T11:41:13.534Z,54.80
2018-10-19T11:44:17.687Z,56.30
2018-10-19T11:47:21.827Z,52.55
2018-10-19T11:50:25.974Z,55.15
2018-10-19T11:53:30.214Z,52.38
2018-10-19T11:56:34.363Z,52.48
2018-10-19T11:59:38.511Z,51.58
2018-10-19T12:02:42.668Z,50.38
2018-10-19T12:05:46.803Z,51.15
2018-10-19T12:08:50.965Z,48.50
2018-10-19T12:11:55.119Z,50.80
2018-10-19T12:14:59.327Z,50.50
2018-10-19T12:18:03.463Z,48.87
2018-10-19T12:21:07.959Z,48.98
2018-10-19T12:24:12.140Z,48.73
2018-10-19T12:27:16.332Z,46.65
2018-10-19T12:30:20.427Z,50.45
2018-10-19T12:33:24.572Z,52.38
2018-10-19T12:36:28.867Z,48.78
2018-10-19T12:39:33.014Z,48.13
2018-10-19T12:42:37.581Z,50.88
2018-10-19T12:46:57.986Z,47.43
2018-10-19T12:50:02.161Z,47.83
2018-10-19T12:53:06.387Z,48.28
2018-10-19T12:56:10.650Z,49.70
2018-10-19T12:59:14.894Z,47.27
2018-10-19T13:02:19.051Z,45.55
2018-10-19T13:05:23.206Z,45.08
2018-10-19T13:08:27.447Z,47.48
2018-10-19T13:11:31.582Z,47.58
2018-10-19T13:14:35.785Z,44.50
2018-10-19T13:17:39.942Z,42.98
2018-10-19T13:20:44.112Z,43.70
2018-10-19T13:23:48.333Z,45.70
2018-10-19T13:26:52.522Z,44.25
2018-10-19T13:29:56.708Z,43.98
2018-10-19T13:33:01.351Z,45.55
2018-10-19T13:36:05.852Z,44.77
2018-10-19T13:39:12.012Z,42.15
2018-10-19T13:42:16.098Z,46.25
2018-10-19T13:45:20.279Z,45.40
2018-10-19T13:48:24.699Z,48.08
2018-10-19T13:51:28.862Z,44.15
2018-10-19T13:54:33.018Z,45.17
2018-10-19T13:57:37.171Z,43.92
2018-10-19T14:00:41.415Z,45.60
2018-10-19T14:03:45.543Z,43.78
2018-10-19T14:06:49.705Z,46.55
2018-10-19T14:09:53.953Z,43.45
2018-10-19T14:12:58.142Z,44.70
2018-10-19T14:16:02.293Z,43.50
2018-10-19T14:19:06.439Z,43.73
2018-10-19T14:22:10.634Z,39.45
2018-10-19T14:25:15.021Z,43.65
2018-10-19T14:28:19.267Z,41.92
2018-10-19T14:31:23.508Z,41.68
2018-10-19T14:34:27.658Z,40.75
2018-10-19T14:37:32.007Z,43.08
2018-10-19T14:40:36.164Z,41.40
2018-10-19T14:43:40.302Z,43.80
2018-10-19T14:46:44.722Z,47.93
2018-10-19T14:49:49.001Z,43.73
2018-10-19T14:52:53.170Z,44.20
2018-10-19T14:55:57.342Z,42.62
2018-10-19T14:59:01.567Z,40.63
2018-10-19T15:02:05.792Z,45.55
2018-10-19T15:05:11.914Z,48.23
2018-10-19T15:08:15.997Z,43.25
2018-10-19T15:11:20.337Z,43.63
2018-10-19T15:14:24.332Z,45.92
2018-10-19T15:17:28.550Z,39.42
2018-10-19T15:20:32.707Z,42.43
2018-10-19T15:23:36.858Z,40.83
2018-10-19T15:26:41.324Z,41.77
2018-10-19T15:29:45.622Z,41.85
2018-10-19T15:32:49.651Z,43.48
2018-10-19T15:35:53.819Z,45.17
2018-10-19T15:38:58.092Z,42.05
2018-10-19T15:42:02.255Z,39.58
2018-10-19T15:45:09.956Z,36.53
2018-10-19T15:48:14.113Z,35.33
2018-10-19T15:51:18.247Z,35.08
2018-10-19T15:54:22.527Z,32.75
2018-10-19T15:57:26.739Z,34.45
2018-10-19T16:00:30.954Z,33.80
2018-10-19T16:03:35.040Z,35.03
2018-10-19T16:06:39.287Z,34.78
2018-10-19T16:09:43.494Z,35.20
2018-10-19T16:12:47.638Z,32.37
2018-10-19T16:15:51.811Z,36.17
2018-10-19T16:18:56.068Z,35.67
2018-10-19T16:22:00.224Z,35.80
2018-10-19T16:25:05.018Z,39.17
2018-10-19T16:28:09.175Z,39.00
2018-10-19T16:31:13.339Z,38.50
2018-10-19T16:34:17.573Z,39.53
2018-10-19T16:37:21.728Z,38.27
2018-10-19T16:40:25.897Z,37.23
2018-10-19T16:43:30.055Z,39.50
2018-10-19T16:46:34.214Z,41.53
2018-10-19T16:49:38.365Z,40.37
2018-10-19T16:52:42.743Z,40.03
2018-10-19T16:55:46.750Z,38.60
2018-10-19T16:58:50.920Z,38.57
2018-10-19T17:01:55.094Z,40.03
2018-10-19T17:04:59.262Z,43.63
2018-10-19T17:08:03.468Z,42.73
2018-10-19T17:11:07.652Z,43.47
2018-10-19T17:14:12.104Z,38.97
2018-10-19T17:17:16.267Z,41.00
2018-10-19T17:20:20.451Z,43.83
2018-10-19T17:23:24.749Z,40.57
2018-10-19T17:26:28.971Z,40.17
2018-10-19T17:29:33.315Z,44.13
2018-10-19T17:32:38.400Z,41.27
2018-10-19T17:35:42.620Z,40.97
2018-10-19T17:38:46.771Z,42.53
2018-10-19T17:41:50.997Z,44.33
2018-10-19T17:44:55.233Z,45.87
2018-10-19T17:47:59.445Z,42.30
2018-10-19T17:51:03.960Z,44.57
2018-10-19T17:54:08.166Z,45.07
2018-10-19T17:57:12.235Z,42.03
2018-10-19T18:00:16.374Z,46.23
2018-10-19T18:03:20.531Z,43.53
2018-10-19T18:06:24.729Z,47.07
2018-10-19T18:09:28.943Z,46.00
2018-10-19T18:12:33.049Z,45.43
2018-10-19T18:15:37.232Z,42.50
2018-10-19T18:18:41.310Z,46.47
2018-10-19T18:21:45.479Z,45.63
2018-10-19T18:24:49.650Z,42.73
2018-10-19T18:27:53.830Z,41.40
2018-10-19T18:30:57.993Z,46.10
2018-10-19T18:34:02.126Z,42.70
2018-10-19T18:37:07.816Z,43.27
2018-10-19T18:40:12.811Z,46.03
2018-10-19T18:43:16.975Z,43.27
2018-10-19T18:46:21.215Z,45.73
2018-10-19T18:49:25.436Z,46.73
2018-10-19T18:52:29.666Z,45.37
2018-10-19T18:55:33.876Z,46.07
2018-10-19T18:58:38.103Z,43.90
2018-10-19T19:01:42.252Z,46.27
2018-10-19T19:04:46.460Z,44.57
2018-10-19T19:07:50.637Z,46.43
2018-10-19T19:10:54.806Z,42.87
2018-10-19T19:13:59.043Z,49.70
2018-10-19T19:17:03.177Z,45.80
2018-10-19T19:20:13.712Z,44.27
2018-10-19T19:23:17.856Z,46.57
2018-10-19T19:26:23.410Z,46.10
2018-10-19T19:29:27.566Z,45.37
2018-10-19T19:32:31.803Z,46.47
2018-10-19T19:35:36.745Z,48.13
2018-10-19T19:38:40.962Z,49.43
2018-10-19T19:41:50.531Z,49.93
2018-10-19T19:44:55.620Z,49.93
2018-10-19T19:48:05.164Z,46.90
2018-10-19T19:51:09.418Z,50.57
2018-10-19T19:54:13.605Z,50.37
2018-10-19T19:57:17.730Z,48.17
2018-10-19T20:00:21.895Z,50.10
2018-10-19T20:03:26.036Z,50.37
2018-10-19T20:06:30.180Z,50.67
2018-10-19T20:09:34.330Z,47.73
2018-10-19T20:12:38.923Z,53.40
2018-10-19T20:15:43.139Z,50.87
2018-10-19T20:18:47.295Z,50.97
2018-10-19T20:21:51.572Z,52.27
2018-10-19T20:24:55.774Z,53.57
2018-10-19T20:27:59.992Z,52.13
2018-10-19T20:31:04.146Z,51.63
2018-10-19T20:34:08.320Z,49.23
2018-10-19T20:37:12.533Z,54.60
2018-10-19T20:40:16.797Z,54.83
2018-10-19T20:43:20.909Z,53.63
2018-10-19T20:46:25.124Z,54.30
2018-10-19T20:49:29.295Z,58.50
2018-10-19T20:52:33.454Z,58.50
2018-10-19T20:55:37.614Z,57.47
2018-10-19T20:58:41.764Z,59.43
2018-10-19T21:01:46.023Z,56.30
2018-10-19T21:04:50.256Z,60.13
2018-10-19T21:07:54.390Z,57.40
2018-10-19T21:10:58.564Z,57.57
2018-10-19T21:14:02.710Z,57.07
2018-10-19T21:17:06.950Z,55.97
2018-10-19T21:20:12.172Z,57.90
2018-10-19T21:23:16.270Z,56.43
2018-10-19T21:26:20.569Z,55.47
2018-10-19T21:29:24.784Z,56.83
2018-10-19T21:32:28.936Z,55.87
2018-10-19T21:35:33.090Z,52.33
2018-10-19T21:38:37.228Z,54.87
2018-10-19T21:41:41.385Z,56.77
2018-10-19T21:44:45.507Z,61.03
2018-10-19T21:47:49.663Z,54.10
2018-10-19T21:50:54.957Z,57.00
2018-10-19T21:53:59.693Z,58.13
2018-10-19T21:57:03.860Z,57.20
2018-10-19T22:00:09.600Z,59.67
2018-10-19T22:03:13.776Z,56.87
2018-10-19T22:06:18.250Z,54.50
2018-10-19T22:09:22.403Z,55.63
2018-10-19T22:12:26.590Z,52.57
2018-10-19T22:15:30.806Z,55.30
2018-10-19T22:18:34.990Z,55.73
2018-10-19T22:21:39.744Z,54.27
2018-10-19T22:24:43.927Z,55.87
2018-10-19T22:27:48.081Z,57.43
2018-10-19T22:30:52.230Z,58.33
2018-10-19T22:33:56.416Z,58.73
2018-10-19T22:37:00.652Z,53.73
2018-10-19T22:40:05.355Z,55.40
2018-10-19T22:43:09.542Z,57.07
2018-10-19T22:46:13.694Z,57.53
2018-10-19T22:49:17.955Z,56.10
2018-10-19T22:52:22.114Z,54.57
2018-10-19T22:55:26.271Z,55.50
2018-10-19T22:58:30.426Z,56.47
2018-10-19T23:01:34.599Z,57.13
2018-10-19T23:04:38.849Z,54.67
2018-10-19T23:07:43.046Z,60.17
2018-10-19T23:10:47.339Z,61.50
2018-10-19T23:13:51.618Z,59.57
2018-10-19T23:16:55.805Z,60.80
2018-10-19T23:19:59.938Z,61.57
2018-10-19T23:23:04.151Z,60.73
2018-10-19T23:26:08.286Z,63.03
2018-10-19T23:29:12.577Z,60.47
2018-10-19T23:32:16.663Z,58.73
2018-10-19T23:35:20.877Z,55.83
2018-10-19T23:38:25.093Z,57.60
2018-10-19T23:41:29.568Z,58.83
2018-10-19T23:44:33.793Z,57.73
2018-10-19T23:47:38.054Z,56.80
2018-10-19T23:50:42.242Z,54.40
2018-10-19T23:53:46.391Z,54.37
2018-10-19T23:56:50.629Z,55.40
2018-10-19T23:59:54.778Z,56.93
